Time;durP1;ratioP1;P1;durP2;ratioP2;P2;SDS_P1;SDS_P2;PMS_P1;PMS_P2;Temp;Humidity;BMP_temperature;BMP_pressure;BME280_temperature;BME280_humidity;BME280_pressure;Samples;Min_cycle;Max_cycle;Signal;HPM_P1;HPM_P2
2021/05/20 00:00:44;;;;;;;16.47;8.17;;;10.40;99.90;;;;;;5091806;28;20287;-77
2021/05/20 00:03:10;;;;;;;20.50;8.40;;;10.50;99.90;;;;;;5096629;28;20622;-77
2021/05/20 00:05:36;;;;;;;14.37;8.07;;;10.50;99.90;;;;;;5084772;28;20657;-77
2021/05/20 00:08:01;;;;;;;13.70;7.80;;;10.50;99.90;;;;;;5071350;28;20564;-76
2021/05/20 00:10:27;;;;;;;14.57;8.07;;;10.50;99.90;;;;;;5079282;28;20651;-77
2021/05/20 00:12:53;;;;;;;15.67;8.80;;;10.50;99.90;;;;;;5075805;28;20223;-76
2021/05/20 00:15:19;;;;;;;17.03;8.57;;;10.50;99.90;;;;;;5076290;28;20180;-76
2021/05/20 00:17:44;;;;;;;14.30;8.23;;;10.40;99.90;;;;;;5074470;28;20316;-77
2021/05/20 00:20:11;;;;;;;15.20;8.33;;;10.40;99.90;;;;;;5094761;28;20260;-77
2021/05/20 00:22:37;;;;;;;17.87;8.87;;;10.40;99.90;;;;;;5091299;28;20269;-77
2021/05/20 00:25:04;;;;;;;15.77;8.37;;;10.40;99.90;;;;;;5094339;28;20224;-76
2021/05/20 00:27:30;;;;;;;16.07;8.33;;;10.30;99.90;;;;;;5072201;28;20536;-76
2021/05/20 00:29:55;;;;;;;15.27;8.07;;;10.30;99.90;;;;;;5090064;28;20219;-77
2021/05/20 00:32:21;;;;;;;19.03;9.37;;;10.30;99.90;;;;;;5074363;28;20301;-77
2021/05/20 00:34:47;;;;;;;16.47;8.47;;;10.40;99.90;;;;;;5085353;28;20180;-76
2021/05/20 00:37:12;;;;;;;14.63;8.50;;;10.40;99.90;;;;;;5058822;28;20222;-77
2021/05/20 00:39:38;;;;;;;16.77;8.70;;;10.30;99.90;;;;;;5056334;28;20202;-77
2021/05/20 00:42:09;;;;;;;16.00;8.43;;;10.30;99.90;;;;;;5041498;28;20217;-77
2021/05/20 00:44:58;;;;;;;14.17;8.23;;;10.30;99.90;;;;;;5070792;28;20197;-78
2021/05/20 00:47:30;;;;;;;14.63;8.00;;;10.20;99.90;;;;;;5054307;28;20190;-77
2021/05/20 00:49:56;;;;;;;16.40;8.00;;;10.20;99.90;;;;;;5075942;28;20191;-77
2021/05/20 00:52:23;;;;;;;14.47;7.70;;;10.10;99.90;;;;;;5052363;28;20204;-77
2021/05/20 00:54:50;;;;;;;17.70;8.90;;;9.90;99.90;;;;;;5072276;28;20700;-77
2021/05/20 00:57:17;;;;;;;16.30;8.43;;;9.90;99.90;;;;;;5052018;28;20273;-77
2021/05/20 00:59:43;;;;;;;21.60;9.27;;;9.90;99.90;;;;;;5053867;28;20194;-77
2021/05/20 01:02:12;;;;;;;16.67;9.50;;;10.00;99.90;;;;;;5072377;28;20202;-77
2021/05/20 01:04:38;;;;;;;15.20;8.83;;;10.10;99.90;;;;;;5052941;28;20212;-76
2021/05/20 01:07:04;;;;;;;15.40;9.07;;;10.00;99.90;;;;;;5069867;28;20267;-76
2021/05/20 01:09:33;;;;;;;15.03;9.40;;;9.80;99.90;;;;;;5071459;28;20713;-76
2021/05/20 01:12:00;;;;;;;17.73;9.53;;;9.80;99.90;;;;;;5070569;28;20244;-76
2021/05/20 01:14:26;;;;;;;19.53;9.97;;;9.80;99.90;;;;;;5037824;28;20166;-77
2021/05/20 01:16:52;;;;;;;19.57;9.17;;;9.90;99.90;;;;;;5059331;28;20190;-77
2021/05/20 01:19:17;;;;;;;18.93;9.13;;;9.90;99.90;;;;;;5073078;28;20184;-75
2021/05/20 01:21:43;;;;;;;14.87;8.90;;;9.90;99.90;;;;;;5053660;28;20657;-77
2021/05/20 01:24:11;;;;;;;17.73;9.20;;;9.70;99.90;;;;;;5050393;28;22065;-77
2021/05/20 01:26:40;;;;;;;17.27;9.83;;;9.70;99.90;;;;;;5071914;28;20182;-76
2021/05/20 01:29:07;;;;;;;16.77;10.17;;;9.80;99.90;;;;;;5068460;28;20191;-77
2021/05/20 01:31:34;;;;;;;18.23;10.00;;;9.90;99.90;;;;;;5071690;28;20178;-76
2021/05/20 01:33:59;;;;;;;17.40;9.53;;;10.00;99.90;;;;;;5067565;28;20214;-76
2021/05/20 01:36:26;;;;;;;18.53;9.30;;;10.00;99.90;;;;;;5084208;28;20236;-76
2021/05/20 01:38:53;;;;;;;17.50;8.93;;;9.90;99.90;;;;;;5067415;28;20184;-77
2021/05/20 01:41:19;;;;;;;14.57;8.40;;;9.70;99.90;;;;;;5096716;28;20695;-77
2021/05/20 01:43:45;;;;;;;16.73;8.80;;;9.50;99.90;;;;;;5090728;28;20190;-76
2021/05/20 01:46:11;;;;;;;18.70;9.50;;;9.30;99.90;;;;;;5085543;28;20189;-77
2021/05/20 01:48:44;;;;;;;18.13;10.00;;;9.50;99.90;;;;;;5091143;28;20193;-77
2021/05/20 01:51:15;;;;;;;22.97;11.10;;;9.50;99.90;;;;;;5074178;28;20222;-76
2021/05/20 01:53:43;;;;;;;19.57;10.47;;;9.40;99.90;;;;;;5091736;28;20217;-76
2021/05/20 01:56:10;;;;;;;17.90;9.27;;;9.30;99.90;;;;;;5090500;28;20176;-76
2021/05/20 01:58:36;;;;;;;18.27;10.10;;;9.20;99.90;;;;;;5070798;28;20200;-76
2021/05/20 02:01:03;;;;;;;17.87;10.80;;;9.20;99.90;;;;;;5072694;28;20199;-77
2021/05/20 02:03:29;;;;;;;17.93;10.47;;;9.20;99.90;;;;;;5085332;28;20193;-76
2021/05/20 02:05:57;;;;;;;21.57;10.97;;;9.30;99.90;;;;;;5091846;28;20194;-77
2021/05/20 02:08:24;;;;;;;22.03;11.27;;;9.40;99.90;;;;;;5091710;28;20189;-77
2021/05/20 02:10:49;;;;;;;19.77;11.10;;;9.40;99.90;;;;;;5091645;28;20203;-77
2021/05/20 02:13:15;;;;;;;24.93;11.53;;;9.40;99.90;;;;;;5072917;28;20598;-77
2021/05/20 02:15:41;;;;;;;20.20;11.47;;;9.40;99.90;;;;;;5084219;28;20540;-77
2021/05/20 02:18:07;;;;;;;19.30;11.07;;;9.40;99.90;;;;;;5090933;28;20651;-77
2021/05/20 02:20:34;;;;;;;23.37;11.27;;;9.40;99.90;;;;;;5092512;28;20169;-76
2021/05/20 02:22:59;;;;;;;19.53;10.97;;;9.20;99.90;;;;;;5089589;28;20262;-76
2021/05/20 02:25:25;;;;;;;19.63;10.57;;;9.20;99.90;;;;;;5090127;28;20192;-77
2021/05/20 02:27:51;;;;;;;19.87;10.70;;;9.20;99.90;;;;;;5088022;28;20264;-77
2021/05/20 02:30:17;;;;;;;22.20;10.63;;;9.10;99.90;;;;;;5091932;28;20625;-77
2021/05/20 02:32:43;;;;;;;23.73;12.10;;;9.10;99.90;;;;;;5088256;28;20228;-77
2021/05/20 02:35:10;;;;;;;20.17;11.37;;;9.10;99.90;;;;;;5088786;28;20225;-76
2021/05/20 02:37:38;;;;;;;21.47;11.60;;;9.00;99.90;;;;;;5076724;28;20581;-76
2021/05/20 02:40:05;;;;;;;23.10;11.43;;;8.90;99.90;;;;;;5091275;28;20173;-76
2021/05/20 02:42:31;;;;;;;23.33;12.13;;;9.00;99.90;;;;;;5089557;28;20185;-76
2021/05/20 02:44:57;;;;;;;21.17;11.50;;;9.00;99.90;;;;;;5072738;28;20239;-76
2021/05/20 02:47:23;;;;;;;22.20;11.83;;;9.10;99.90;;;;;;5089802;28;20175;-77
2021/05/20 02:49:49;;;;;;;20.00;10.20;;;9.00;99.90;;;;;;5086363;28;20188;-77
2021/05/20 02:52:14;;;;;;;16.60;10.10;;;9.00;99.90;;;;;;5087659;28;20286;-77
2021/05/20 02:54:40;;;;;;;17.07;9.07;;;9.00;99.90;;;;;;5083240;28;20176;-77
2021/05/20 02:57:07;;;;;;;18.17;10.43;;;8.90;99.90;;;;;;5091491;28;20166;-76
2021/05/20 02:59:33;;;;;;;25.50;16.02;;;8.80;99.90;;;;;;5088154;28;20424;-76
2021/05/20 03:02:04;;;;;;;29.23;16.60;;;8.60;99.90;;;;;;5091798;28;20196;-76
2021/05/20 03:04:31;;;;;;;34.43;18.53;;;8.80;99.90;;;;;;5091534;28;20191;-77
2021/05/20 03:06:57;;;;;;;36.70;20.00;;;8.90;99.90;;;;;;5072417;28;20256;-76
2021/05/20 03:09:23;;;;;;;38.10;21.07;;;9.00;99.90;;;;;;5088560;28;20647;-77
2021/05/20 03:11:48;;;;;;;41.77;22.43;;;9.10;99.90;;;;;;5072743;28;20297;-76
2021/05/20 03:14:14;;;;;;;41.57;22.70;;;9.20;99.90;;;;;;5083182;28;20176;-77
2021/05/20 03:16:40;;;;;;;41.57;23.47;;;9.20;99.90;;;;;;5076919;28;20193;-76
2021/05/20 03:19:05;;;;;;;39.43;22.97;;;9.30;99.90;;;;;;5097763;28;20193;-76
2021/05/20 03:21:31;;;;;;;40.47;22.77;;;9.30;99.90;;;;;;5090310;28;20560;-76
2021/05/20 03:23:57;;;;;;;40.37;22.17;;;9.30;99.90;;;;;;5077895;28;20188;-76
2021/05/20 03:26:23;;;;;;;37.67;22.13;;;9.30;99.90;;;;;;5092580;28;20242;-76
2021/05/20 03:28:49;;;;;;;38.60;23.03;;;9.30;99.90;;;;;;5077694;28;20197;-76
2021/05/20 03:31:14;;;;;;;41.17;22.57;;;9.30;99.90;;;;;;5075822;28;20181;-76
2021/05/20 03:33:41;;;;;;;36.13;21.13;;;9.40;99.90;;;;;;5076080;28;20213;-76
2021/05/20 03:36:08;;;;;;;38.80;22.80;;;9.40;99.90;;;;;;5092186;28;20226;-77
2021/05/20 03:38:33;;;;;;;38.77;22.10;;;9.30;99.90;;;;;;5089261;28;21445;-77
2021/05/20 03:41:01;;;;;;;39.63;23.53;;;9.40;99.90;;;;;;5071597;28;20195;-77
2021/05/20 03:43:30;;;;;;;41.03;23.80;;;9.30;99.90;;;;;;5082979;28;20176;-77
2021/05/20 03:45:56;;;;;;;37.20;22.40;;;9.40;99.90;;;;;;5093673;28;20187;-77
2021/05/20 03:48:22;;;;;;;39.47;23.20;;;9.40;99.90;;;;;;5087597;28;20178;-77
2021/05/20 03:50:47;;;;;;;44.73;23.97;;;9.40;99.90;;;;;;5091331;28;20239;-77
2021/05/20 03:53:13;;;;;;;40.93;23.73;;;9.40;99.90;;;;;;5093034;28;20209;-77
2021/05/20 03:55:39;;;;;;;43.47;25.77;;;9.50;99.90;;;;;;5093570;28;20186;-77
2021/05/20 03:58:04;;;;;;;42.87;25.20;;;9.60;99.90;;;;;;5074376;28;20194;-77
2021/05/20 04:00:30;;;;;;;42.70;24.40;;;9.60;99.90;;;;;;5093930;28;20178;-77
2021/05/20 04:02:55;;;;;;;45.57;24.77;;;9.60;99.90;;;;;;5076247;28;20185;-78
2021/05/20 04:05:21;;;;;;;47.83;24.93;;;9.60;99.90;;;;;;5092119;28;20230;-77
2021/05/20 04:07:47;;;;;;;39.07;24.13;;;9.60;99.90;;;;;;5085985;28;20189;-77
2021/05/20 04:10:13;;;;;;;44.43;24.70;;;9.70;99.90;;;;;;5092061;28;20189;-77
2021/05/20 04:12:39;;;;;;;41.53;23.50;;;9.60;99.90;;;;;;5058399;28;20220;-77
2021/05/20 04:15:05;;;;;;;41.30;23.80;;;9.60;99.90;;;;;;5068232;28;20189;-77
2021/05/20 04:17:31;;;;;;;38.10;23.27;;;9.70;99.90;;;;;;5075338;28;20181;-77
2021/05/20 04:19:56;;;;;;;39.33;24.63;;;9.80;99.90;;;;;;5072069;28;20198;-77
2021/05/20 04:22:22;;;;;;;43.33;23.27;;;9.80;99.90;;;;;;5074533;28;20173;-77
2021/05/20 04:24:48;;;;;;;36.73;22.57;;;10.00;99.90;;;;;;5082355;28;20545;-76
2021/05/20 04:27:13;;;;;;;42.53;22.93;;;10.00;99.90;;;;;;5092647;28;20202;-77
2021/05/20 04:29:39;;;;;;;36.57;21.83;;;10.30;99.90;;;;;;5086181;28;20194;-77
2021/05/20 04:32:05;;;;;;;35.50;20.63;;;10.40;99.90;;;;;;5072871;28;20196;-77
2021/05/20 04:34:31;;;;;;;33.00;20.23;;;10.80;99.90;;;;;;5077411;28;20178;-78
2021/05/20 04:36:56;;;;;;;33.17;19.90;;;11.00;99.90;;;;;;5084788;28;20219;-77
2021/05/20 04:39:22;;;;;;;33.13;19.40;;;11.40;99.90;;;;;;5073935;28;21708;-77
2021/05/20 04:41:48;;;;;;;27.17;17.80;;;12.10;99.90;;;;;;5096990;28;20167;-76
2021/05/20 04:44:13;;;;;;;23.17;15.00;;;13.10;99.90;;;;;;5074638;28;20195;-77
2021/05/20 04:46:39;;;;;;;24.23;15.20;;;14.10;99.90;;;;;;5092483;28;20186;-77
2021/05/20 04:49:14;;;;;;;26.57;15.07;;;14.90;99.90;;;;;;5074004;28;20211;-77
2021/05/20 04:51:42;;;;;;;23.17;14.20;;;15.60;99.90;;;;;;5088231;28;20187;-77
2021/05/20 04:54:08;;;;;;;19.97;12.53;;;16.10;99.90;;;;;;5094043;28;20202;-78
2021/05/20 04:56:34;;;;;;;22.23;13.70;;;16.70;99.90;;;;;;5093679;28;20281;-76
2021/05/20 04:59:01;;;;;;;20.83;12.57;;;17.10;99.90;;;;;;5091495;28;20596;-77
2021/05/20 05:01:26;;;;;;;18.67;12.30;;;17.60;99.90;;;;;;5073346;28;20183;-78
2021/05/20 05:03:52;;;;;;;20.70;12.20;;;18.30;99.90;;;;;;5090256;28;20273;-77
2021/05/20 05:06:18;;;;;;;21.40;13.20;;;18.60;99.90;;;;;;5070567;28;20210;-77
2021/05/20 05:08:44;;;;;;;18.90;11.83;;;18.90;99.90;;;;;;5090909;28;20211;-78
2021/05/20 05:11:09;;;;;;;24.17;12.57;;;19.10;99.90;;;;;;5091486;28;20185;-78
2021/05/20 05:13:35;;;;;;;18.60;12.27;;;19.50;99.90;;;;;;5092811;28;20237;-78
2021/05/20 05:16:01;;;;;;;21.70;12.30;;;19.90;99.90;;;;;;5093321;28;20710;-77
2021/05/20 05:18:26;;;;;;;17.17;12.27;;;20.70;99.90;;;;;;5085302;28;20186;-77
2021/05/20 05:20:52;;;;;;;21.10;12.53;;;21.30;99.90;;;;;;5074620;28;20190;-77
2021/05/20 05:23:18;;;;;;;21.53;12.47;;;21.60;99.90;;;;;;5087291;28;20238;-77
2021/05/20 05:25:48;;;;;;;20.37;12.30;;;22.10;99.90;;;;;;5089528;28;20183;-78
2021/05/20 05:28:14;;;;;;;18.60;12.43;;;22.80;99.90;;;;;;5091914;28;20228;-77
2021/05/20 05:30:39;;;;;;;17.57;12.17;;;23.20;99.90;;;;;;5072100;28;20205;-78
2021/05/20 05:33:05;;;;;;;19.37;12.07;;;23.50;99.90;;;;;;5075576;28;20209;-78
2021/05/20 05:35:30;;;;;;;17.43;12.30;;;23.60;99.60;;;;;;5069733;28;20243;-77
2021/05/20 05:37:56;;;;;;;20.73;12.30;;;23.40;98.60;;;;;;5090557;28;20185;-77
2021/05/20 05:40:22;;;;;;;23.07;12.37;;;23.60;98.90;;;;;;5085373;28;20177;-77
2021/05/20 05:42:47;;;;;;;19.80;12.27;;;23.80;98.10;;;;;;5093433;28;20905;-77
2021/05/20 05:45:13;;;;;;;17.90;12.10;;;23.30;98.60;;;;;;5090860;28;20192;-76
2021/05/20 05:47:39;;;;;;;21.93;13.27;;;22.40;98.40;;;;;;5085913;28;20199;-76
2021/05/20 05:50:11;;;;;;;22.40;12.73;;;22.10;99.40;;;;;;5091037;28;20214;-76
2021/05/20 05:52:37;;;;;;;21.77;11.90;;;21.90;99.90;;;;;;5070533;28;20707;-76
2021/05/20 05:55:04;;;;;;;19.67;11.37;;;21.70;99.90;;;;;;5089202;28;20182;-76
2021/05/20 05:57:30;;;;;;;19.10;11.40;;;21.20;99.90;;;;;;5088997;28;20197;-76
2021/05/20 05:59:55;;;;;;;22.47;10.90;;;21.70;99.90;;;;;;5089625;28;20255;-76
2021/05/20 06:02:22;;;;;;;18.67;10.27;;;22.30;99.90;;;;;;5073319;28;20193;-76
2021/05/20 06:04:49;;;;;;;19.60;10.90;;;23.10;99.00;;;;;;5087915;28;20265;-78
2021/05/20 06:07:15;;;;;;;18.07;10.40;;;23.40;97.80;;;;;;5071881;28;20201;-77
2021/05/20 06:09:41;;;;;;;21.27;11.00;;;23.80;97.10;;;;;;5072242;28;20636;-76
2021/05/20 06:12:07;;;;;;;18.90;10.80;;;23.30;96.30;;;;;;5073718;28;20188;-77
2021/05/20 06:14:36;;;;;;;19.17;11.27;;;23.10;97.60;;;;;;5088293;28;20243;-76
2021/05/20 06:17:02;;;;;;;18.87;10.23;;;22.60;97.50;;;;;;5086896;28;20268;-77
2021/05/20 06:19:27;;;;;;;19.60;11.37;;;22.60;98.00;;;;;;5089098;28;20180;-77
2021/05/20 06:21:53;;;;;;;19.43;10.80;;;22.90;98.60;;;;;;5067283;28;20179;-77
2021/05/20 06:24:18;;;;;;;19.83;10.87;;;23.30;98.40;;;;;;5085139;28;20202;-78
2021/05/20 06:26:44;;;;;;;17.87;10.90;;;23.40;98.00;;;;;;5072247;28;20219;-75
2021/05/20 06:29:10;;;;;;;21.17;10.43;;;23.20;97.30;;;;;;5081719;28;20189;-75
2021/05/20 06:31:35;;;;;;;18.63;9.90;;;23.20;97.60;;;;;;5091143;28;20206;-77
2021/05/20 06:34:01;;;;;;;16.27;9.70;;;23.80;98.10;;;;;;5089472;28;20258;-77
2021/05/20 06:36:27;;;;;;;17.77;9.93;;;24.00;97.30;;;;;;5090215;28;20216;-76
2021/05/20 06:38:52;;;;;;;17.70;10.00;;;23.60;97.50;;;;;;5072745;28;20187;-76
2021/05/20 06:41:19;;;;;;;19.93;10.70;;;23.90;96.60;;;;;;5090864;28;20279;-77
2021/05/20 06:43:45;;;;;;;19.03;10.37;;;24.70;95.80;;;;;;5091463;28;20218;-76
2021/05/20 06:46:11;;;;;;;18.53;10.63;;;25.70;94.60;;;;;;5094064;28;20258;-76
2021/05/20 06:48:36;;;;;;;18.90;10.90;;;26.40;93.00;;;;;;5093028;28;20695;-77
2021/05/20 06:51:03;;;;;;;18.02;11.05;;;26.50;91.40;;;;;;5062987;28;20211;-77
2021/05/20 06:53:31;;;;;;;23.10;11.83;;;26.30;91.20;;;;;;5091194;28;20211;-78
2021/05/20 06:56:00;;;;;;;17.97;11.80;;;25.70;91.70;;;;;;5093197;28;20232;-77
2021/05/20 07:01:11;;;;;;;17.95;11.60;;;26.50;91.20;;;;;;5092857;28;20194;-77
2021/05/20 07:03:36;;;;;;;17.48;11.27;;;27.60;91.20;;;;;;5083226;28;20186;-77
2021/05/20 07:06:02;;;;;;;16.95;10.77;;;28.10;90.20;;;;;;5095671;28;20183;-77
2021/05/20 07:08:28;;;;;;;18.08;10.52;;;28.40;85.20;;;;;;5083210;28;20207;-77
2021/05/20 07:10:55;;;;;;;16.40;10.27;;;29.20;83.60;;;;;;5075700;28;20655;-77
2021/05/20 07:13:21;;;;;;;17.70;10.07;;;30.00;79.70;;;;;;5095798;28;20203;-78
2021/05/20 07:15:48;;;;;;;15.77;10.50;;;30.40;75.50;;;;;;5076323;28;20260;-78
2021/05/20 07:18:14;;;;;;;16.50;10.65;;;29.50;74.20;;;;;;5095673;28;20207;-77
2021/05/20 07:20:40;;;;;;;18.75;11.82;;;29.40;74.70;;;;;;5086940;28;20734;-77
2021/05/20 07:23:12;;;;;;;17.85;11.88;;;28.90;74.20;;;;;;5094067;28;20199;-77
2021/05/20 07:25:39;;;;;;;18.38;11.70;;;28.80;74.50;;;;;;5091127;28;20592;-76
2021/05/20 07:28:05;;;;;;;19.15;11.95;;;29.20;77.40;;;;;;5089385;28;20195;-76
2021/05/20 07:30:31;;;;;;;18.27;12.20;;;30.00;74.10;;;;;;5091777;28;20176;-77
2021/05/20 07:32:57;;;;;;;17.02;12.32;;;30.90;71.20;;;;;;5095583;28;20679;-78
2021/05/20 07:35:23;;;;;;;17.13;10.60;;;31.60;69.00;;;;;;5092895;28;20352;-76
2021/05/20 07:37:49;;;;;;;17.13;11.85;;;30.30;67.60;;;;;;5089391;28;20317;-77
2021/05/20 07:40:15;;;;;;;17.20;11.50;;;30.70;68.30;;;;;;5090290;28;20294;-77
2021/05/20 07:42:41;;;;;;;21.70;13.20;;;30.00;69.20;;;;;;5092675;28;20186;-77
2021/05/20 07:45:08;;;;;;;22.23;12.60;;;30.30;70.50;;;;;;5086220;28;20273;-77
2021/05/20 07:47:34;;;;;;;20.63;12.60;;;30.70;68.70;;;;;;5092191;28;20194;-77
2021/05/20 07:49:59;;;;;;;20.08;12.20;;;30.20;68.40;;;;;;5093548;28;20565;-77
2021/05/20 07:52:25;;;;;;;18.77;11.75;;;30.90;68.20;;;;;;5090662;28;20688;-76
2021/05/20 07:54:52;;;;;;;17.13;11.82;;;32.00;65.00;;;;;;5070821;28;20585;-76
2021/05/20 07:57:18;;;;;;;19.90;11.82;;;32.70;64.40;;;;;;5058484;28;20302;-76
2021/05/20 07:59:43;;;;;;;20.77;13.40;;;33.30;62.50;;;;;;5089623;28;20645;-76
2021/05/20 08:02:23;;;;;;;18.73;11.98;;;32.40;61.60;;;;;;5072903;28;20673;-78
2021/05/20 08:04:51;;;;;;;16.50;11.10;;;31.50;63.30;;;;;;5087946;28;20589;-77
2021/05/20 08:10:01;;;;;;;24.98;14.07;;;30.00;64.10;;;;;;5090552;28;20237;-77
2021/05/20 08:12:27;;;;;;;20.77;13.95;;;30.80;65.10;;;;;;5089703;28;20214;-77
2021/05/20 08:14:54;;;;;;;22.98;14.18;;;31.00;64.20;;;;;;5087366;28;20179;-77
2021/05/20 08:17:19;;;;;;;23.13;13.35;;;31.50;64.50;;;;;;5079175;28;20232;-77
2021/05/20 08:19:45;;;;;;;18.10;11.73;;;31.30;62.70;;;;;;5089977;28;20881;-77
2021/05/20 08:22:11;;;;;;;18.23;11.50;;;33.10;62.20;;;;;;5090271;28;20249;-77
2021/05/20 08:24:36;;;;;;;21.95;11.85;;;34.20;58.90;;;;;;5081911;28;20187;-78
2021/05/20 08:27:02;;;;;;;18.67;12.35;;;34.40;57.70;;;;;;5075625;28;20191;-78
2021/05/20 08:29:29;;;;;;;31.83;14.50;;;33.90;57.10;;;;;;5088668;28;20175;-78
2021/05/20 08:31:55;;;;;;;42.13;16.23;;;34.60;57.00;;;;;;5091255;28;20229;-77
2021/05/20 08:34:20;;;;;;;92.85;21.33;;;35.10;55.20;;;;;;5071801;28;20586;-77
2021/05/20 08:36:46;;;;;;;28.00;18.55;;;35.10;54.20;;;;;;5057840;28;20230;-78
2021/05/20 08:39:12;;;;;;;29.98;19.77;;;34.40;53.30;;;;;;5073555;28;20179;-76
2021/05/20 08:41:38;;;;;;;37.22;24.98;;;34.70;54.00;;;;;;5088648;28;20186;-76
2021/05/20 08:44:12;;;;;;;35.95;24.40;;;33.90;54.60;;;;;;5091946;28;20183;-76
2021/05/20 08:46:38;;;;;;;37.88;22.45;;;31.90;56.80;;;;;;5088952;28;20186;-77
2021/05/20 08:49:14;;;;;;;31.17;21.08;;;31.60;57.30;;;;;;5091548;28;20649;-77
2021/05/20 08:51:41;;;;;;;30.33;19.83;;;31.50;57.50;;;;;;5090176;28;20236;-78
2021/05/20 08:54:07;;;;;;;26.20;16.25;;;32.20;58.30;;;;;;5082550;28;20209;-76
2021/05/20 08:56:32;;;;;;;26.92;14.23;;;32.00;56.60;;;;;;5091740;28;20281;-76
2021/05/20 08:58:59;;;;;;;18.35;12.77;;;32.60;57.00;;;;;;5086504;28;20182;-76
2021/05/20 09:01:39;;;;;;;19.13;12.50;;;32.10;56.10;;;;;;5072293;28;20176;-76
2021/05/20 09:04:06;;;;;;;23.58;9.40;;;32.20;56.40;;;;;;5088809;28;20653;-77
2021/05/20 09:06:46;;;;;;;16.98;9.57;;;31.50;56.60;;;;;;5090844;28;20182;-77
2021/05/20 09:09:25;;;;;;;14.63;8.48;;;32.70;57.40;;;;;;5094496;28;20187;-78
2021/05/20 09:11:56;;;;;;;13.07;8.05;;;33.10;56.20;;;;;;5089929;28;20667;-77
2021/05/20 09:14:31;;;;;;;13.70;9.15;;;33.20;57.00;;;;;;5091338;28;20215;-77
2021/05/20 09:17:18;;;;;;;13.95;8.52;;;32.90;56.30;;;;;;5084565;28;20229;-77
2021/05/20 09:19:54;;;;;;;12.00;8.43;;;33.00;55.90;;;;;;5091221;28;20182;-77
2021/05/20 09:22:21;;;;;;;15.13;9.00;;;33.20;57.20;;;;;;5089721;28;20176;-77
2021/05/20 09:24:55;;;;;;;16.55;9.55;;;32.20;57.00;;;;;;5066826;28;20581;-77
2021/05/20 09:27:25;;;;;;;14.48;8.70;;;31.30;59.00;;;;;;5090742;28;20336;-77
2021/05/20 09:30:15;;;;;;;13.68;8.45;;;31.50;59.30;;;;;;5090399;28;20263;-77
2021/05/20 09:33:09;;;;;;;19.33;9.05;;;31.60;58.80;;;;;;5094524;28;20206;-77
2021/05/20 09:35:43;;;;;;;13.52;7.57;;;29.70;59.50;;;;;;5064086;28;20301;-77
2021/05/20 09:38:17;;;;;;;10.93;6.88;;;28.80;64.00;;;;;;5090889;28;20183;-77
2021/05/20 09:40:55;;;;;;;10.27;7.35;;;28.90;63.30;;;;;;5072603;28;20221;-77
2021/05/20 09:43:24;;;;;;;11.15;7.45;;;28.00;63.40;;;;;;5057174;28;20569;-77
2021/05/20 09:45:54;;;;;;;10.95;6.60;;;27.10;65.90;;;;;;5088711;28;20271;-77
2021/05/20 09:48:21;;;;;;;10.20;6.45;;;26.80;68.40;;;;;;5089789;28;20236;-77
2021/05/20 09:50:53;;;;;;;12.30;7.00;;;26.60;68.60;;;;;;5088188;28;20278;-77
2021/05/20 09:53:22;;;;;;;10.88;6.25;;;26.10;67.40;;;;;;5082795;28;20605;-77
2021/05/20 09:55:52;;;;;;;10.57;6.17;;;26.10;68.50;;;;;;5069667;28;20163;-77
2021/05/20 09:58:18;;;;;;;9.47;5.50;;;26.20;70.20;;;;;;5069495;28;20176;-77
2021/05/20 10:00:44;;;;;;;13.40;6.80;;;26.30;68.80;;;;;;5087296;28;20179;-77
2021/05/20 10:03:14;;;;;;;11.07;6.73;;;26.20;71.00;;;;;;5065677;28;20184;-77
2021/05/20 10:05:46;;;;;;;9.53;6.30;;;26.60;70.70;;;;;;5085460;28;20172;-76
2021/05/20 10:08:16;;;;;;;11.27;6.27;;;26.80;71.50;;;;;;5089706;28;20726;-76
2021/05/20 10:10:53;;;;;;;11.10;6.38;;;27.10;69.50;;;;;;5065566;28;20206;-77
2021/05/20 10:13:23;;;;;;;10.20;6.70;;;27.50;66.70;;;;;;5087695;28;20217;-76
2021/05/20 10:15:50;;;;;;;10.70;6.30;;;27.40;66.60;;;;;;5063648;28;20179;-76
2021/05/20 10:18:27;;;;;;;9.32;6.03;;;27.30;66.40;;;;;;5075764;28;20332;-76
2021/05/20 10:20:56;;;;;;;8.52;5.38;;;26.90;69.00;;;;;;5094693;28;20641;-76
2021/05/20 10:23:23;;;;;;;7.97;4.75;;;27.00;67.70;;;;;;5094168;28;20653;-76
2021/05/20 10:25:51;;;;;;;9.70;5.13;;;26.70;67.80;;;;;;5094250;28;20644;-76
2021/05/20 10:28:18;;;;;;;11.83;5.80;;;26.60;67.10;;;;;;5091605;28;20195;-76
2021/05/20 10:30:50;;;;;;;10.77;5.03;;;26.60;67.40;;;;;;5092698;28;20213;-76
2021/05/20 10:33:17;;;;;;;8.15;4.93;;;26.60;68.10;;;;;;5093824;28;20201;-76
2021/05/20 10:35:45;;;;;;;7.17;4.20;;;26.80;68.50;;;;;;5091310;28;20767;-76
2021/05/20 10:38:15;;;;;;;10.60;4.28;;;26.40;67.60;;;;;;5094832;28;20179;-76
2021/05/20 10:40:41;;;;;;;6.32;4.07;;;26.00;67.20;;;;;;5094737;28;20179;-76
2021/05/20 10:43:17;;;;;;;8.73;4.90;;;26.10;70.40;;;;;;5091639;28;20175;-76
2021/05/20 10:46:00;;;;;;;6.80;4.30;;;25.50;68.90;;;;;;5083051;28;20715;-77
2021/05/20 10:48:27;;;;;;;6.60;4.20;;;25.60;70.90;;;;;;5094242;28;20585;-76
2021/05/20 10:50:56;;;;;;;7.77;4.33;;;25.90;72.10;;;;;;5092060;28;20594;-76
2021/05/20 10:54:06;;;;;;;8.37;4.20;;;26.00;70.00;;;;;;5092567;28;20210;-76
2021/05/20 10:56:32;;;;;;;6.90;4.23;;;25.90;71.10;;;;;;5056639;28;20261;-76
2021/05/20 10:58:58;;;;;;;8.13;4.20;;;26.10;68.90;;;;;;5074830;28;20607;-76
2021/05/20 11:01:24;;;;;;;7.70;4.50;;;26.20;71.30;;;;;;5089866;28;20221;-76
2021/05/20 11:03:59;;;;;;;9.00;4.60;;;26.30;70.70;;;;;;5084668;28;20229;-76
2021/05/20 11:06:47;;;;;;;12.70;5.40;;;25.70;68.70;;;;;;5093918;28;20643;-77
2021/05/20 11:09:14;;;;;;;8.37;4.90;;;25.60;71.30;;;;;;5072507;28;20195;-76
2021/05/20 11:11:40;;;;;;;8.73;5.30;;;25.60;71.60;;;;;;5095135;28;20294;-76
2021/05/20 11:14:12;;;;;;;8.20;4.90;;;24.90;70.70;;;;;;5091967;28;20293;-76
2021/05/20 11:16:39;;;;;;;7.30;4.57;;;24.70;74.50;;;;;;5093028;28;20202;-76
2021/05/20 11:19:20;;;;;;;9.07;5.10;;;24.30;75.60;;;;;;5091104;28;20685;-77
2021/05/20 11:22:05;;;;;;;8.70;4.40;;;24.10;75.00;;;;;;5069920;28;20234;-77
2021/05/20 11:24:35;;;;;;;7.77;4.10;;;23.90;74.60;;;;;;5076405;28;20190;-76
2021/05/20 11:27:05;;;;;;;6.60;4.30;;;24.00;78.80;;;;;;5071494;28;20191;-76
2021/05/20 11:29:36;;;;;;;8.43;3.93;;;24.40;75.90;;;;;;5091563;28;20263;-77
2021/05/20 11:32:30;;;;;;;6.80;4.03;;;23.90;75.60;;;;;;5083461;28;20662;-76
2021/05/20 11:37:47;;;;;;;5.50;3.60;;;23.80;78.10;;;;;;5089374;28;20178;-76
2021/05/20 11:40:30;;;;;;;6.90;4.03;;;23.80;76.80;;;;;;5088600;28;21768;-76
2021/05/20 11:42:56;;;;;;;7.63;3.90;;;23.70;77.50;;;;;;5085320;28;20642;-76
2021/05/20 11:45:27;;;;;;;6.67;3.37;;;23.90;77.30;;;;;;5072414;28;20191;-76
2021/05/20 11:47:58;;;;;;;8.70;3.87;;;23.70;75.70;;;;;;5091473;28;20273;-76
2021/05/20 11:50:25;;;;;;;6.33;3.67;;;23.40;76.50;;;;;;5087185;28;20779;-76
2021/05/20 11:52:52;;;;;;;9.70;3.53;;;23.10;78.10;;;;;;5074966;28;20210;-76
2021/05/20 11:55:22;;;;;;;6.30;3.80;;;23.00;79.80;;;;;;5087197;28;20520;-76
2021/05/20 11:57:58;;;;;;;6.60;3.43;;;22.90;78.30;;;;;;5090032;28;20683;-76
2021/05/20 12:00:24;;;;;;;6.70;3.40;;;23.30;79.20;;;;;;5052391;28;20186;-76
2021/05/20 12:02:54;;;;;;;5.53;3.13;;;23.30;80.00;;;;;;5075611;28;20548;-76
2021/05/20 12:05:23;;;;;;;6.87;3.13;;;23.30;78.80;;;;;;5072965;28;20688;-76
2021/05/20 12:07:49;;;;;;;9.63;3.17;;;23.10;79.20;;;;;;5086504;28;20187;-76
2021/05/20 12:10:19;;;;;;;6.27;3.00;;;22.90;77.80;;;;;;5074304;28;20202;-76
2021/05/20 12:12:52;;;;;;;7.37;3.37;;;22.80;81.50;;;;;;5093284;28;20720;-76
2021/05/20 12:15:19;;;;;;;8.87;2.83;;;22.80;80.30;;;;;;5072217;28;20197;-76
2021/05/20 12:17:46;;;;;;;8.50;3.70;;;23.00;80.40;;;;;;5089291;28;20185;-76
2021/05/20 12:20:14;;;;;;;8.00;2.83;;;22.30;78.20;;;;;;5071895;28;20215;-76
2021/05/20 12:22:40;;;;;;;10.57;3.70;;;21.90;80.10;;;;;;5090494;28;20193;-76
2021/05/20 12:25:10;;;;;;;7.30;2.63;;;21.50;81.30;;;;;;5080099;28;20210;-76
2021/05/20 12:27:36;;;;;;;9.27;2.80;;;21.10;80.60;;;;;;5071921;28;20192;-76
2021/05/20 12:30:04;;;;;;;8.17;2.73;;;21.20;80.40;;;;;;5071384;28;20605;-77
2021/05/20 12:32:36;;;;;;;9.70;3.00;;;21.10;82.00;;;;;;5089367;28;20217;-77
2021/05/20 12:35:15;;;;;;;8.50;2.53;;;21.10;83.40;;;;;;5058218;28;20677;-76
2021/05/20 12:38:00;;;;;;;6.03;2.53;;;21.00;82.90;;;;;;5091770;28;20570;-77
2021/05/20 12:40:34;;;;;;;5.93;2.40;;;20.50;83.80;;;;;;5071626;28;20182;-76
2021/05/20 12:43:26;;;;;;;7.43;2.53;;;20.60;86.10;;;;;;5073399;28;20190;-76
2021/05/20 12:46:06;;;;;;;12.37;2.73;;;20.10;84.00;;;;;;5074151;28;20189;-76
2021/05/20 12:48:42;;;;;;;6.90;2.03;;;19.70;86.50;;;;;;5074560;28;20294;-76